Time;durP1;ratioP1;P1;durP2;ratioP2;P2;SDS_P1;SDS_P2;PMS_P1;PMS_P2;Temp;Humidity;BMP_temperature;BMP_pressure;BME280_temperature;BME280_humidity;BME280_pressure;Samples;Min_cycle;Max_cycle;Signal;HPM_P1;HPM_P2
2021/01/13 00:00:44;;;;;;;;;;;;;;;28.89;24.42;99809.59;5075518;28;783;-34
2021/01/13 00:03:09;;;;;;;;;;;;;;;28.36;25.21;99820.47;5076461;28;758;-35
2021/01/13 00:05:36;;;;;;;;;;;;;;;28.13;25.46;99822.84;5076183;28;819;-32
2021/01/13 00:08:01;;;;;;;;;;;;;;;28.53;25.11;99827.28;5089380;28;950;-33
2021/01/13 00:10:27;;;;;;;;;;;;;;;28.75;24.76;99827.78;5100195;28;762;-33
2021/01/13 00:12:52;;;;;;;;;;;;;;;28.73;24.53;99821.75;5099610;28;1976;-35
2021/01/13 00:15:17;;;;;;;;;;;;;;;28.63;24.83;99807.88;5099410;28;759;-33
2021/01/13 00:17:46;;;;;;;;;;;;;;;27.89;25.66;99811.66;5099372;28;1087;-34
2021/01/13 00:20:11;;;;;;;;;;;;;;;28.26;25.33;99808.44;5100067;28;802;-41
2021/01/13 00:22:36;;;;;;;;;;;;;;;28.63;25.01;99803.28;5090308;28;949;-41
2021/01/13 00:25:02;;;;;;;;;;;;;;;28.79;24.49;99803.84;5079302;28;1742;-40
2021/01/13 00:27:27;;;;;;;;;;;;;;;28.88;24.61;99799.00;5079312;28;826;-34
2021/01/13 00:29:53;;;;;;;;;;;;;;;28.27;25.59;99805.50;5079109;28;894;-33
2021/01/13 00:32:18;;;;;;;;;;;;;;;28.07;25.57;99814.53;5079140;28;779;-30
2021/01/13 00:34:43;;;;;;;;;;;;;;;28.52;25.27;99817.50;5079158;28;1905;-32
2021/01/13 00:37:10;;;;;;;;;;;;;;;28.67;24.61;99820.75;5083753;28;1064;-38
2021/01/13 00:39:35;;;;;;;;;;;;;;;28.75;24.57;99825.09;5099275;28;795;-36
2021/01/13 00:42:01;;;;;;;;;;;;;;;28.43;25.06;99827.72;5099483;28;806;-40
2021/01/13 00:44:26;;;;;;;;;;;;;;;27.83;26.04;99841.19;5098553;28;815;-33
2021/01/13 00:46:52;;;;;;;;;;;;;;;28.27;25.46;99846.06;5099253;28;775;-30
2021/01/13 00:49:17;;;;;;;;;;;;;;;28.66;24.72;99851.56;5099154;28;780;-33
2021/01/13 00:51:42;;;;;;;;;;;;;;;28.68;24.81;99854.88;5098449;28;1001;-32
2021/01/13 00:54:08;;;;;;;;;;;;;;;28.83;24.29;99860.00;5098976;28;1969;-41
2021/01/13 00:56:34;;;;;;;;;;;;;;;28.28;25.30;99852.31;5097845;28;802;-30
2021/01/13 00:58:59;;;;;;;;;;;;;;;27.84;25.68;99840.13;5098260;28;1097;-41
2021/01/13 01:01:25;;;;;;;;;;;;;;;28.41;25.03;99843.38;5098846;28;753;-34
2021/01/13 01:03:51;;;;;;;;;;;;;;;28.61;24.68;99848.69;5098610;28;839;-37
2021/01/13 01:06:16;;;;;;;;;;;;;;;28.73;24.77;99860.47;5098417;28;776;-31
2021/01/13 01:08:41;;;;;;;;;;;;;;;28.47;25.00;99840.63;5098882;28;958;-32
2021/01/13 01:11:07;;;;;;;;;;;;;;;27.82;25.96;99828.72;5098898;28;886;-32
2021/01/13 01:13:32;;;;;;;;;;;;;;;28.28;25.23;99823.38;5097880;28;1894;-32
2021/01/13 01:15:57;;;;;;;;;;;;;;;28.58;25.05;99816.63;5098614;28;826;-40
2021/01/13 01:18:23;;;;;;;;;;;;;;;28.70;24.64;99814.91;5098514;28;1165;-31
2021/01/13 01:20:48;;;;;;;;;;;;;;;28.71;24.59;99813.03;5097191;28;815;-33
2021/01/13 01:23:13;;;;;;;;;;;;;;;28.03;25.83;99815.97;5083810;28;945;-33
2021/01/13 01:25:38;;;;;;;;;;;;;;;28.19;25.52;99801.19;5078057;28;1182;-37
2021/01/13 01:28:04;;;;;;;;;;;;;;;28.53;25.03;99795.63;5078058;28;795;-35
2021/01/13 01:30:30;;;;;;;;;;;;;;;28.67;24.73;99807.22;5077677;28;844;-34
2021/01/13 01:32:55;;;;;;;;;;;;;;;28.73;24.88;99800.09;5078007;28;1971;-30
2021/01/13 01:35:21;;;;;;;;;;;;;;;28.45;25.21;99806.72;5077606;28;830;-35
2021/01/13 01:37:46;;;;;;;;;;;;;;;27.83;26.22;99808.75;5088180;28;974;-32
2021/01/13 01:40:12;;;;;;;;;;;;;;;28.38;25.32;99801.31;5097870;28;855;-30
2021/01/13 01:43:04;;;;;;;;;;;;;;;28.55;24.99;99798.13;5097877;28;734;-33
2021/01/13 01:45:30;;;;;;;;;;;;;;;28.76;24.42;99796.97;5094996;28;1602;-40
2021/01/13 01:47:58;;;;;;;;;;;;;;;28.50;25.22;99793.38;5098097;28;853;-31
2021/01/13 01:50:24;;;;;;;;;;;;;;;28.13;25.68;99783.09;5097637;28;761;-31
2021/01/13 01:52:53;;;;;;;;;;;;;;;28.26;25.73;99775.97;5096627;28;1906;-40
2021/01/13 01:55:18;;;;;;;;;;;;;;;28.33;25.42;99783.03;5096669;28;914;-36
2021/01/13 01:57:45;;;;;;;;;;;;;;;28.64;24.78;99786.03;5096229;28;763;-32
2021/01/13 02:00:18;;;;;;;;;;;;;;;28.83;24.43;99778.81;5097433;28;825;-30
2021/01/13 02:02:47;;;;;;;;;;;;;;;28.51;25.28;99776.06;5096522;28;779;-30
2021/01/13 02:05:12;;;;;;;;;;;;;;;28.29;25.52;99778.25;5096239;28;823;-32
2021/01/13 02:07:37;;;;;;;;;;;;;;;28.43;25.25;99773.63;5096488;28;1060;-40
2021/01/13 02:10:03;;;;;;;;;;;;;;;28.61;25.17;99759.41;5097637;28;763;-39
2021/01/13 02:12:30;;;;;;;;;;;;;;;28.80;24.55;99773.00;5097030;28;756;-39
2021/01/13 02:14:55;;;;;;;;;;;;;;;28.81;24.74;99777.38;5097464;28;1934;-35
2021/01/13 02:17:29;;;;;;;;;;;;;;;28.27;25.80;99759.53;5097426;28;1086;-35
2021/01/13 02:19:57;;;;;;;;;;;;;;;28.20;25.38;99769.53;5097078;28;765;-30
2021/01/13 02:22:26;;;;;;;;;;;;;;;28.17;25.38;99773.53;5090124;28;957;-35
2021/01/13 02:25:09;;;;;;;;;;;;;;;28.60;24.74;99784.78;5076963;28;1087;-30
2021/01/13 02:27:53;;;;;;;;;;;;;;;28.82;24.61;99795.28;5076611;28;780;-33
2021/01/13 02:30:20;;;;;;;;;;;;;;;28.80;24.79;99816.31;5076639;28;879;-32
2021/01/13 02:32:47;;;;;;;;;;;;;;;28.39;25.06;99794.88;5076503;28;1914;-32
2021/01/13 02:35:33;;;;;;;;;;;;;;;28.19;25.15;99795.78;5076510;28;744;-31
2021/01/13 02:38:08;;;;;;;;;;;;;;;28.68;24.89;99797.22;5088156;28;1080;-38
2021/01/13 02:40:33;;;;;;;;;;;;;;;28.77;24.41;99806.75;5097017;28;806;-30
2021/01/13 02:43:07;;;;;;;;;;;;;;;28.84;24.50;99817.53;5096562;28;795;-38
2021/01/13 02:45:38;;;;;;;;;;;;;;;28.37;25.20;99818.63;5097304;28;747;-40
2021/01/13 02:48:04;;;;;;;;;;;;;;;28.02;25.81;99810.78;5097278;28;718;-32
2021/01/13 02:50:36;;;;;;;;;;;;;;;28.50;25.23;99809.59;5096637;28;760;-35
2021/01/13 02:53:25;;;;;;;;;;;;;;;28.65;25.02;99812.03;5096208;28;1963;-33
2021/01/13 02:55:56;;;;;;;;;;;;;;;28.75;24.56;99810.72;5095701;28;811;-40
2021/01/13 02:58:27;;;;;;;;;;;;;;;28.28;25.70;99822.56;5096399;28;787;-33
2021/01/13 03:00:53;;;;;;;;;;;;;;;28.13;25.42;99812.03;5097040;28;838;-32
2021/01/13 03:03:18;;;;;;;;;;;;;;;28.12;25.85;99813.88;5096571;28;850;-33
2021/01/13 03:05:47;;;;;;;;;;;;;;;28.33;25.20;99822.78;5096399;28;714;-31
2021/01/13 03:08:12;;;;;;;;;;;;;;;28.78;24.57;99813.81;5096140;28;961;-37
2021/01/13 03:10:38;;;;;;;;;;;;;;;28.92;24.43;99805.63;5097018;28;786;-41
2021/01/13 03:13:05;;;;;;;;;;;;;;;28.44;25.45;99797.78;5096208;28;1967;-33
2021/01/13 03:15:31;;;;;;;;;;;;;;;28.26;25.34;99794.91;5096663;28;756;-31
2021/01/13 03:18:05;;;;;;;;;;;;;;;28.62;24.91;99803.50;5096922;28;1169;-33
2021/01/13 03:20:31;;;;;;;;;;;;;;;28.72;24.93;99803.88;5096240;28;844;-30
2021/01/13 03:23:09;;;;;;;;;;;;;;;28.84;24.45;99804.00;5083578;28;950;-29
2021/01/13 03:25:36;;;;;;;;;;;;;;;28.39;25.75;99807.56;5076174;28;1312;-40
2021/01/13 03:28:01;;;;;;;;;;;;;;;28.16;25.79;99808.88;5076211;28;790;-31
2021/01/13 03:30:27;;;;;;;;;;;;;;;28.07;25.92;99806.41;5075147;28;811;-32
2021/01/13 03:33:01;;;;;;;;;;;;;;;28.27;25.40;99813.63;5074901;28;1968;-32
2021/01/13 03:35:53;;;;;;;;;;;;;;;28.68;24.99;99813.47;5076188;28;839;-30
2021/01/13 03:38:18;;;;;;;;;;;;;;;28.84;24.40;99818.34;5088628;28;1441;-35
2021/01/13 03:40:44;;;;;;;;;;;;;;;28.41;25.46;99819.03;5096686;28;854;-33
2021/01/13 03:43:15;;;;;;;;;;;;;;;28.10;25.92;99814.09;5097672;28;774;-40
2021/01/13 03:45:41;;;;;;;;;;;;;;;28.45;25.35;99815.66;5100352;28;871;-33
2021/01/13 03:48:06;;;;;;;;;;;;;;;28.68;25.22;99816.16;5100033;28;890;-30
2021/01/13 03:50:32;;;;;;;;;;;;;;;28.76;24.96;99818.63;5100221;28;767;-41
2021/01/13 03:53:01;;;;;;;;;;;;;;;28.77;24.93;99833.81;5099894;28;1905;-30
2021/01/13 03:55:28;;;;;;;;;;;;;;;28.06;26.34;99825.56;5100067;28;810;-36
2021/01/13 03:57:56;;;;;;;;;;;;;;;27.89;24.88;99827.88;5099258;28;835;-39
2021/01/13 04:00:21;;;;;;;;;;;;;;;26.58;25.83;99835.16;5100283;28;779;-39
2021/01/13 04:03:05;;;;;;;;;;;;;;;26.17;26.47;99832.25;5100040;28;775;-41
2021/01/13 04:05:30;;;;;;;;;;;;;;;25.96;26.68;99828.59;5099292;28;815;-42
2021/01/13 04:07:56;;;;;;;;;;;;;;;25.79;27.33;99836.97;5099439;28;1024;-39
2021/01/13 04:10:21;;;;;;;;;;;;;;;25.95;26.98;99836.88;5100117;28;801;-42
2021/01/13 04:12:50;;;;;;;;;;;;;;;26.14;26.63;99838.84;5098732;28;1897;-38
2021/01/13 04:15:15;;;;;;;;;;;;;;;26.13;26.58;99849.84;5099787;28;838;-41
2021/01/13 04:17:40;;;;;;;;;;;;;;;26.07;26.49;99843.41;5098348;28;1103;-39
2021/01/13 04:20:06;;;;;;;;;;;;;;;26.12;26.42;99850.88;5098214;28;842;-33
2021/01/13 04:22:31;;;;;;;;;;;;;;;26.20;26.07;99852.56;5090961;28;932;-38
2021/01/13 04:24:57;;;;;;;;;;;;;;;26.38;25.87;99852.06;5079552;28;1104;-38
2021/01/13 04:27:22;;;;;;;;;;;;;;;26.17;26.05;99851.94;5078767;28;759;-39
2021/01/13 04:29:47;;;;;;;;;;;;;;;26.36;25.25;99843.38;5079253;28;804;-38
2021/01/13 04:32:13;;;;;;;;;;;;;;;25.29;21.73;99850.44;5079027;28;791;-39
2021/01/13 04:34:39;;;;;;;;;;;;;;;24.36;21.99;99843.78;5078808;28;1910;-41
2021/01/13 04:37:04;;;;;;;;;;;;;;;24.42;23.03;99843.84;5083316;28;1029;-41
2021/01/13 04:39:30;;;;;;;;;;;;;;;24.13;21.51;99839.28;5099298;28;791;-38
2021/01/13 04:41:58;;;;;;;;;;;;;;;24.00;22.32;99858.72;5097441;28;813;-38
2021/01/13 04:44:24;;;;;;;;;;;;;;;23.46;21.67;99866.75;5099202;28;757;-36
2021/01/13 04:46:49;;;;;;;;;;;;;;;23.11;21.04;99857.25;5097831;28;1082;-38
2021/01/13 04:49:19;;;;;;;;;;;;;;;22.85;21.21;99853.06;5098949;28;739;-35
2021/01/13 04:51:45;;;;;;;;;;;;;;;22.47;21.57;99861.72;5098680;28;958;-36
2021/01/13 04:54:11;;;;;;;;;;;;;;;22.33;21.61;99873.16;5099161;28;1973;-34
2021/01/13 04:56:39;;;;;;;;;;;;;;;22.36;21.54;99844.19;5098905;28;743;-38
2021/01/13 04:59:23;;;;;;;;;;;;;;;24.85;20.24;99841.44;5097542;28;734;-36
2021/01/13 05:01:52;;;;;;;;;;;;;;;25.65;20.16;99843.31;5098590;28;847;-35
2021/01/13 05:04:33;;;;;;;;;;;;;;;26.01;20.61;99852.25;5098233;28;775;-38
2021/01/13 05:07:01;;;;;;;;;;;;;;;26.23;21.68;99847.63;5098552;28;938;-35
2021/01/13 05:09:26;;;;;;;;;;;;;;;26.45;22.11;99844.84;5098684;28;814;-35
2021/01/13 05:11:52;;;;;;;;;;;;;;;26.73;22.15;99843.09;5097090;28;927;-34
2021/01/13 05:14:17;;;;;;;;;;;;;;;26.94;22.02;99839.44;5096882;28;1914;-33
2021/01/13 05:16:48;;;;;;;;;;;;;;;26.63;22.17;99838.06;5098238;28;791;-36
2021/01/13 05:19:29;;;;;;;;;;;;;;;26.11;23.09;99835.75;5077746;28;827;-37
2021/01/13 05:21:55;;;;;;;;;;;;;;;25.97;23.90;99842.91;5081011;28;903;-37
2021/01/13 05:24:20;;;;;;;;;;;;;;;25.89;23.97;99838.50;5097988;28;1209;-36
2021/01/13 05:26:45;;;;;;;;;;;;;;;25.76;24.12;99840.06;5098253;28;839;-37
2021/01/13 05:29:23;;;;;;;;;;;;;;;26.04;23.95;99844.59;5096766;28;1280;-32
2021/01/13 05:31:49;;;;;;;;;;;;;;;26.36;23.67;99837.97;5098274;28;778;-33
2021/01/13 05:34:14;;;;;;;;;;;;;;;26.38;23.69;99839.44;5094888;28;1979;-29
2021/01/13 05:36:40;;;;;;;;;;;;;;;26.44;23.87;99834.28;5096256;28;830;-28
2021/01/13 05:39:05;;;;;;;;;;;;;;;26.82;23.51;99838.34;5096860;28;823;-28
2021/01/13 05:41:31;;;;;;;;;;;;;;;26.91;23.44;99839.81;5097249;28;792;-27
2021/01/13 05:43:56;;;;;;;;;;;;;;;26.36;24.20;99843.38;5098134;28;754;-30
2021/01/13 05:46:22;;;;;;;;;;;;;;;26.04;24.92;99850.00;5098330;28;704;-31
2021/01/13 05:48:48;;;;;;;;;;;;;;;26.48;24.47;99852.53;5096367;28;842;-38
2021/01/13 05:51:13;;;;;;;;;;;;;;;26.66;24.49;99845.75;5097898;28;877;-32
2021/01/13 05:53:39;;;;;;;;;;;;;;;26.68;24.48;99851.78;5079824;28;1890;-37
2021/01/13 05:56:04;;;;;;;;;;;;;;;27.02;24.19;99849.22;5089076;28;1475;-38
2021/01/13 05:58:30;;;;;;;;;;;;;;;27.22;24.04;99851.97;5097913;28;755;-40
2021/01/13 06:00:56;;;;;;;;;;;;;;;27.34;23.94;99857.56;5097647;28;805;-31
2021/01/13 06:03:22;;;;;;;;;;;;;;;27.45;24.10;99866.09;5096673;28;834;-38
2021/01/13 06:05:49;;;;;;;;;;;;;;;27.62;23.88;99863.81;5096528;28;921;-36
2021/01/13 06:08:14;;;;;;;;;;;;;;;27.76;23.98;99870.06;5097413;28;950;-37
2021/01/13 06:10:40;;;;;;;;;;;;;;;27.85;23.86;99874.25;5096525;28;807;-37
2021/01/13 06:13:05;;;;;;;;;;;;;;;28.06;23.52;99875.03;5096036;28;1910;-32
2021/01/13 06:15:31;;;;;;;;;;;;;;;28.20;23.31;99885.81;5097031;28;748;-29
2021/01/13 06:17:57;;;;;;;;;;;;;;;27.86;23.23;99889.41;5096593;28;1079;-32
2021/01/13 06:20:25;;;;;;;;;;;;;;;27.08;24.62;99890.75;5097118;28;763;-30
2021/01/13 06:22:51;;;;;;;;;;;;;;;27.43;24.41;99890.63;5085836;28;958;-33
2021/01/13 06:25:19;;;;;;;;;;;;;;;28.18;23.85;99893.31;5076320;28;1302;-30
2021/01/13 06:27:56;;;;;;;;;;;;;;;27.65;24.04;99897.69;5076918;28;914;-36
2021/01/13 06:30:26;;;;;;;;;;;;;;;26.99;25.12;99899.00;5076875;28;807;-30
2021/01/13 06:33:04;;;;;;;;;;;;;;;27.27;24.89;99894.53;5075675;28;1913;-32
2021/01/13 06:35:32;;;;;;;;;;;;;;;27.38;24.43;99901.19;5075118;28;1072;-33
2021/01/13 06:37:58;;;;;;;;;;;;;;;27.41;24.62;99902.66;5088226;28;986;-36
2021/01/13 06:40:23;;;;;;;;;;;;;;;27.30;24.68;99899.53;5096514;28;779;-27
2021/01/13 06:42:48;;;;;;;;;;;;;;;27.77;24.21;99903.34;5096402;28;823;-29
2021/01/13 06:45:14;;;;;;;;;;;;;;;27.84;24.33;99907.69;5095542;28;818;-29
2021/01/13 06:47:55;;;;;;;;;;;;;;;27.22;24.99;99907.81;5096253;28;788;-35
2021/01/13 06:50:33;;;;;;;;;;;;;;;26.96;25.36;99910.19;5096863;28;726;-32
2021/01/13 06:52:58;;;;;;;;;;;;;;;27.72;24.39;99909.38;5096508;28;1968;-33
2021/01/13 06:55:33;;;;;;;;;;;;;;;27.62;24.78;99907.06;5096240;28;787;-32
2021/01/13 06:58:27;;;;;;;;;;;;;;;27.60;24.92;99912.66;5096874;28;706;-29
2021/01/13 07:00:59;;;;;;;;;;;;;;;27.82;24.74;99914.34;5082253;28;1217;-39
2021/01/13 07:03:25;;;;;;;;;;;;;;;27.94;24.20;99919.97;5096459;28;827;-36
2021/01/13 07:05:52;;;;;;;;;;;;;;;28.09;24.17;99915.16;5096488;28;752;-36
2021/01/13 07:08:18;;;;;;;;;;;;;;;28.29;24.16;99916.19;5096324;28;942;-32
2021/01/13 07:10:43;;;;;;;;;;;;;;;28.41;23.61;99914.50;5095266;28;890;-30
2021/01/13 07:13:08;;;;;;;;;;;;;;;28.50;23.66;99909.69;5096280;28;1968;-31
2021/01/13 07:15:33;;;;;;;;;;;;;;;28.66;23.48;99913.78;5095859;28;847;-27
2021/01/13 07:18:02;;;;;;;;;;;;;;;27.72;24.43;99901.25;5098172;28;1138;-33
2021/01/13 07:20:28;;;;;;;;;;;;;;;27.37;24.96;99907.66;5100432;28;734;-34
2021/01/13 07:22:53;;;;;;;;;;;;;;;27.41;24.94;99906.19;5087471;28;863;-30
2021/01/13 07:25:20;;;;;;;;;;;;;;;27.53;24.80;99919.09;5080405;28;1171;-35
2021/01/13 07:27:45;;;;;;;;;;;;;;;27.08;25.63;99926.69;5078611;28;1430;-30
2021/01/13 07:30:10;;;;;;;;;;;;;;;27.30;25.43;99928.41;5079166;28;767;-30
2021/01/13 07:32:36;;;;;;;;;;;;;;;27.60;24.75;99923.47;5078591;28;811;-33
2021/01/13 07:35:06;;;;;;;;;;;;;;;27.68;24.63;99927.84;5095503;28;1979;-31
2021/01/13 07:37:34;;;;;;;;;;;;;;;27.69;24.66;99931.41;5099975;28;1425;-30
2021/01/13 07:39:59;;;;;;;;;;;;;;;28.02;24.53;99925.16;5098869;28;763;-33
2021/01/13 07:42:27;;;;;;;;;;;;;;;27.99;24.07;99934.50;5100100;28;785;-31
2021/01/13 07:44:53;;;;;;;;;;;;;;;26.79;24.67;99944.81;5100285;28;724;-27
2021/01/13 07:47:24;;;;;;;;;;;;;;;26.71;25.54;99940.41;5099487;28;933;-30
2021/01/13 07:49:53;;;;;;;;;;;;;;;26.70;25.66;99943.31;5100097;28;811;-35
2021/01/13 07:52:18;;;;;;;;;;;;;;;26.82;25.50;99940.88;5098554;28;950;-28
2021/01/13 07:54:47;;;;;;;;;;;;;;;26.73;25.62;99942.91;5098349;28;1902;-26
2021/01/13 07:57:12;;;;;;;;;;;;;;;27.24;25.17;99949.78;5099447;28;854;-33
2021/01/13 07:59:41;;;;;;;;;;;;;;;27.73;24.66;99940.75;5098457;28;827;-27
2021/01/13 08:02:33;;;;;;;;;;;;;;;27.13;24.79;99944.97;5099301;28;795;-28
2021/01/13 08:04:58;;;;;;;;;;;;;;;26.77;25.69;99953.13;5091298;28;1225;-32
2021/01/13 08:07:35;;;;;;;;;;;;;;;26.69;25.66;99956.00;5086665;28;1189;-31
2021/01/13 08:10:00;;;;;;;;;;;;;;;27.65;24.92;99951.72;5082085;28;1146;-28
2021/01/13 08:12:32;;;;;;;;;;;;;;;27.94;24.15;99947.84;5078039;28;787;-24
2021/01/13 08:15:00;;;;;;;;;;;;;;;27.91;24.39;99950.13;5078727;28;1897;-30
2021/01/13 08:17:38;;;;;;;;;;;;;;;28.00;24.35;99962.38;5085030;28;1098;-34
2021/01/13 08:20:04;;;;;;;;;;;;;;;28.13;24.17;99961.53;5099654;28;807;-30
2021/01/13 08:22:29;;;;;;;;;;;;;;;28.17;24.27;99957.38;5089775;28;926;-36
2021/01/13 08:25:12;;;;;;;;;;;;;;;27.27;25.09;99953.94;5079034;28;1316;-35
2021/01/13 08:27:38;;;;;;;;;;;;;;;27.02;25.67;99952.63;5078388;28;915;-30
2021/01/13 08:30:03;;;;;;;;;;;;;;;27.91;24.93;99950.94;5085670;28;822;-28
2021/01/13 08:32:30;;;;;;;;;;;;;;;28.01;24.73;99957.81;5092751;28;866;-34
2021/01/13 08:34:58;;;;;;;;;;;;;;;27.91;24.95;99956.34;5096601;28;1902;-22
2021/01/13 08:37:33;;;;;;;;;;;;;;;28.02;24.38;99960.31;5097214;28;1232;-29
2021/01/13 08:40:00;;;;;;;;;;;;;;;28.16;24.34;99961.13;5098901;28;830;-32
2021/01/13 08:42:26;;;;;;;;;;;;;;;27.49;25.27;99954.59;5097170;28;770;-25
2021/01/13 08:44:53;;;;;;;;;;;;;;;27.34;25.41;99957.47;5095183;28;866;-24
2021/01/13 08:47:19;;;;;;;;;;;;;;;28.14;24.86;99957.81;5098323;28;823;-24
2021/01/13 08:49:44;;;;;;;;;;;;;;;28.15;24.73;99950.50;5097719;28;851;-21
2021/01/13 08:52:10;;;;;;;;;;;;;;;28.02;24.94;99954.91;5096176;28;816;-22
2021/01/13 08:54:35;;;;;;;;;;;;;;;28.06;24.54;99949.91;5097411;28;1968;-25
2021/01/13 08:57:03;;;;;;;;;;;;;;;28.06;24.51;99953.44;5097996;28;867;-22
2021/01/13 08:59:36;;;;;;;;;;;;;;;28.31;24.40;99946.56;5097427;28;803;-26
2021/01/13 09:02:02;;;;;;;;;;;;;;;28.54;23.84;99943.41;5097134;28;819;-24
2021/01/13 09:04:27;;;;;;;;;;;;;;;28.77;23.46;99946.66;5091907;28;1755;-41
2021/01/13 09:07:02;;;;;;;;;;;;;;;28.90;23.20;99951.19;5092957;28;958;-27
2021/01/13 09:09:30;;;;;;;;;;;;;;;28.95;23.10;99941.38;5096521;28;873;-30
2021/01/13 09:11:55;;;;;;;;;;;;;;;28.56;23.59;99935.91;5096238;28;953;-26
2021/01/13 09:14:21;;;;;;;;;;;;;;;27.78;24.60;99932.84;5096996;28;1905;-27
2021/01/13 09:16:46;;;;;;;;;;;;;;;28.03;24.53;99926.81;5097772;28;886;-29
2021/01/13 09:19:12;;;;;;;;;;;;;;;28.53;24.21;99936.31;5096734;28;824;-32
2021/01/13 09:21:40;;;;;;;;;;;;;;;28.58;24.03;99943.78;5096980;28;839;-31
2021/01/13 09:24:06;;;;;;;;;;;;;;;28.66;23.93;99940.03;5096916;28;1241;-27
2021/01/13 09:26:35;;;;;;;;;;;;;;;28.68;23.68;99924.41;5096993;28;915;-26
2021/01/13 09:29:02;;;;;;;;;;;;;;;28.51;23.56;99935.69;5097060;28;807;-22
2021/01/13 09:31:27;;;;;;;;;;;;;;;27.72;24.44;99928.28;5096958;28;819;-37
2021/01/13 09:33:53;;;;;;;;;;;;;;;27.61;24.89;99921.59;5097354;28;1969;-25
2021/01/13 09:36:20;;;;;;;;;;;;;;;27.99;24.38;99926.41;5095847;28;814;-23
2021/01/13 09:38:45;;;;;;;;;;;;;;;28.02;24.90;99929.72;5095000;28;990;-19
2021/01/13 09:41:21;;;;;;;;;;;;;;;27.68;25.04;99924.28;5094310;28;813;-25
2021/01/13 09:43:46;;;;;;;;;;;;;;;28.34;24.49;99922.63;5095116;28;816;-27
2021/01/13 09:46:20;;;;;;;;;;;;;;;28.45;24.29;99931.13;5097093;28;823;-26
2021/01/13 09:48:54;;;;;;;;;;;;;;;27.58;25.11;99920.13;5097349;28;822;-28
2021/01/13 09:51:19;;;;;;;;;;;;;;;27.37;25.16;99913.06;5089534;28;1003;-22
2021/01/13 09:53:48;;;;;;;;;;;;;;;27.55;25.26;99914.31;5088693;28;1905;-22
2021/01/13 09:56:13;;;;;;;;;;;;;;;27.65;24.92;99908.50;5089904;28;1249;-28
2021/01/13 09:58:43;;;;;;;;;;;;;;;27.79;24.50;99923.72;5095555;28;1168;-31
2021/01/13 10:01:09;;;;;;;;;;;;;;;28.20;24.38;99923.69;5096469;28;862;-28
2021/01/13 10:03:34;;;;;;;;;;;;;;;28.30;24.10;99915.13;5096987;28;819;-29
2021/01/13 10:06:00;;;;;;;;;;;;;;;27.40;24.82;99907.22;5092019;28;923;-28
2021/01/13 10:08:31;;;;;;;;;;;;;;;26.97;25.53;99901.09;5090729;28;1196;-27
2021/01/13 10:11:02;;;;;;;;;;;;;;;27.38;24.99;99901.19;5093537;28;1189;-31
2021/01/13 10:13:28;;;;;;;;;;;;;;;27.62;24.95;99896.25;5093654;28;1966;-36
2021/01/13 10:15:54;;;;;;;;;;;;;;;27.52;25.13;99891.25;5089681;28;1189;-32
2021/01/13 10:18:19;;;;;;;;;;;;;;;28.01;24.75;99882.13;5085398;28;1286;-34
2021/01/13 10:20:53;;;;;;;;;;;;;;;28.19;24.38;99887.72;5090690;28;1267;-33
2021/01/13 10:23:18;;;;;;;;;;;;;;;27.73;24.69;99881.28;5087766;28;1331;-36
2021/01/13 10:25:43;;;;;;;;;;;;;;;27.21;25.49;99879.97;5082436;28;1282;-35
2021/01/13 10:28:10;;;;;;;;;;;;;;;27.39;25.42;99878.56;5080724;28;1223;-31
2021/01/13 10:30:35;;;;;;;;;;;;;;;28.27;23.90;99872.28;5077004;28;771;-34
2021/01/13 10:33:00;;;;;;;;;;;;;;;28.58;23.60;99868.03;5081597;28;1997;-20
2021/01/13 10:35:38;;;;;;;;;;;;;;;28.42;23.74;99866.66;5084411;28;888;-25
2021/01/13 10:38:03;;;;;;;;;;;;;;;28.43;23.69;99847.50;5088356;28;937;-24
2021/01/13 10:40:29;;;;;;;;;;;;;;;28.53;23.92;99855.16;5093908;28;925;-22
2021/01/13 10:42:54;;;;;;;;;;;;;;;28.64;23.69;99853.66;5095601;28;871;-35
2021/01/13 10:45:20;;;;;;;;;;;;;;;27.87;24.64;99850.53;5092940;28;1005;-27
2021/01/13 10:47:55;;;;;;;;;;;;;;;27.47;25.20;99847.81;5087381;28;1063;-28
2021/01/13 10:50:27;;;;;;;;;;;;;;;27.73;24.98;99846.16;5086838;28;1205;-26
2021/01/13 10:52:54;;;;;;;;;;;;;;;27.87;24.77;99847.00;5088979;28;1909;-29
2021/01/13 10:55:19;;;;;;;;;;;;;;;27.52;25.19;99842.63;5087337;28;1180;-33
2021/01/13 10:57:45;;;;;;;;;;;;;;;27.32;25.26;99835.34;5095322;28;907;-26
2021/01/13 11:00:11;;;;;;;;;;;;;;;27.31;24.85;99835.56;5095709;28;859;-22
2021/01/13 11:02:36;;;;;;;;;;;;;;;27.75;24.91;99830.59;5089302;28;939;-28
2021/01/13 11:05:01;;;;;;;;;;;;;;;27.90;24.49;99830.34;5086669;28;1339;-34
2021/01/13 11:07:39;;;;;;;;;;;;;;;27.73;24.75;99830.81;5091255;28;802;-35
2021/01/13 11:10:05;;;;;;;;;;;;;;;27.57;24.87;99836.59;5088393;28;793;-36
2021/01/13 11:12:31;;;;;;;;;;;;;;;27.37;25.33;99837.44;5089849;28;1181;-25
2021/01/13 11:14:56;;;;;;;;;;;;;;;27.46;25.23;99840.78;5095145;28;1960;-26
2021/01/13 11:17:22;;;;;;;;;;;;;;;27.61;25.05;99846.78;5092506;28;911;-36
2021/01/13 11:19:47;;;;;;;;;;;;;;;27.68;25.05;99838.69;5093270;28;1169;-23
2021/01/13 11:22:13;;;;;;;;;;;;;;;27.55;25.35;99850.31;5094991;28;735;-24
2021/01/13 11:24:40;;;;;;;;;;;;;;;27.24;25.99;99836.38;5095104;28;1094;-22
2021/01/13 11:27:06;;;;;;;;;;;;;;;27.16;26.23;99846.56;5095169;28;847;-23
2021/01/13 11:29:32;;;;;;;;;;;;;;;27.51;25.33;99857.16;5095728;28;840;-24
2021/01/13 11:31:58;;;;;;;;;;;;;;;27.65;25.39;99859.88;5093180;28;882;-33
2021/01/13 11:34:23;;;;;;;;;;;;;;;27.62;25.06;99853.84;5082512;28;1917;-23
2021/01/13 11:36:52;;;;;;;;;;;;;;;28.15;24.96;99853.16;5083322;28;1133;-26
2021/01/13 11:39:20;;;;;;;;;;;;;;;28.24;24.88;99851.91;5094951;28;770;-26
2021/01/13 11:41:52;;;;;;;;;;;;;;;27.35;24.88;99851.16;5078149;28;1328;-27
2021/01/13 11:44:28;;;;;;;;;;;;;;;26.78;25.67;99849.56;5090656;28;1200;-36
2021/01/13 11:46:58;;;;;;;;;;;;;;;27.08;26.08;99848.41;5093157;28;1180;-35
2021/01/13 11:49:36;;;;;;;;;;;;;;;27.17;25.81;99850.91;5095353;28;750;-25
2021/01/13 11:52:09;;;;;;;;;;;;;;;26.94;26.14;99844.00;5094788;28;820;-25
2021/01/13 11:54:34;;;;;;;;;;;;;;;26.57;26.45;99846.97;5095610;28;1901;-26
2021/01/13 11:57:18;;;;;;;;;;;;;;;26.83;26.14;99850.78;5095585;28;796;-26
2021/01/13 11:59:44;;;;;;;;;;;;;;;27.15;25.60;99848.41;5096000;28;779;-27
2021/01/13 12:02:14;;;;;;;;;;;;;;;27.23;25.52;99850.06;5091812;28;1188;-26
2021/01/13 12:04:43;;;;;;;;;;;;;;;27.10;25.50;99854.44;5087926;28;1031;-34
2021/01/13 12:07:08;;;;;;;;;;;;;;;27.81;25.31;99856.75;5084921;28;1223;-38
2021/01/13 12:09:36;;;;;;;;;;;;;;;24.41;23.12;99846.72;5095021;28;1292;-31
2021/01/13 12:12:01;;;;;;;;;;;;;;;22.72;25.12;99853.59;5088856;28;1263;-36
2021/01/13 12:14:26;;;;;;;;;;;;;;;22.63;24.69;99852.84;5088700;28;1901;-32
2021/01/13 12:17:01;;;;;;;;;;;;;;;22.87;23.95;99866.28;5088994;28;1347;-32
2021/01/13 12:19:39;;;;;;;;;;;;;;;22.07;24.71;99856.31;5087964;28;1216;-25
2021/01/13 12:22:04;;;;;;;;;;;;;;;23.81;24.75;99868.97;5090992;28;1205;-24
2021/01/13 12:24:39;;;;;;;;;;;;;;;26.05;22.09;99883.19;5087786;28;1414;-24
2021/01/13 12:27:20;;;;;;;;;;;;;;;26.82;21.78;99882.34;5087565;28;1207;-24
2021/01/13 12:29:46;;;;;;;;;;;;;;;27.21;22.00;99890.78;5089190;28;1161;-24
2021/01/13 12:32:11;;;;;;;;;;;;;;;27.49;22.01;99888.97;5086410;28;1328;-29
2021/01/13 12:34:36;;;;;;;;;;;;;;;27.63;22.46;99895.19;5088731;28;1914;-27
2021/01/13 12:37:05;;;;;;;;;;;;;;;27.80;22.43;99894.81;5090736;28;1153;-23
2021/01/13 12:39:34;;;;;;;;;;;;;;;27.77;23.03;99897.94;5087737;28;1192;-36
2021/01/13 12:41:59;;;;;;;;;;;;;;;26.69;24.40;99880.44;5088224;28;1282;-26
2021/01/13 12:44:25;;;;;;;;;;;;;;;26.94;24.37;99882.63;5089152;28;1276;-25
2021/01/13 12:47:03;;;;;;;;;;;;;;;27.66;23.40;99883.97;5087534;28;1375;-27
2021/01/13 12:49:28;;;;;;;;;;;;;;;27.83;23.26;99883.56;5086748;28;1177;-24
2021/01/13 12:51:57;;;;;;;;;;;;;;;27.92;23.24;99881.50;5089237;28;1173;-25
2021/01/13 12:54:22;;;;;;;;;;;;;;;28.08;23.18;99882.91;5088294;28;1910;-28
2021/01/13 12:56:48;;;;;;;;;;;;;;;28.22;22.87;99883.75;5089072;28;1251;-26
2021/01/13 12:59:13;;;;;;;;;;;;;;;28.05;23.29;99869.84;5087047;28;1288;-25
2021/01/13 13:01:39;;;;;;;;;;;;;;;28.08;23.32;99874.81;5088807;28;1252;-29
2021/01/13 13:04:04;;;;;;;;;;;;;;;28.38;23.22;99881.66;5085361;28;1181;-26
2021/01/13 13:06:31;;;;;;;;;;;;;;;28.51;22.89;99878.88;5078004;28;831;-29